sensor_id;sensor_type;location;lat;lon;timestamp;temperature;humidity
70368;DHT22;57789;53.868;10.728;2022-10-26T00:00:52;10.30;99.90
70368;DHT22;57789;53.868;10.728;2022-10-26T00:03:20;10.30;99.90
70368;DHT22;57789;53.868;10.728;2022-10-26T00:05:46;10.30;99.90
70368;DHT22;57789;53.868;10.728;2022-10-26T00:08:11;10.30;99.90
70368;DHT22;57789;53.868;10.728;2022-10-26T00:10:38;10.30;99.90
70368;DHT22;57789;53.868;10.728;2022-10-26T00:13:05;10.20;99.90
70368;DHT22;57789;53.868;10.728;2022-10-26T00:15:41;10.20;99.90
70368;DHT22;57789;53.868;10.728;2022-10-26T00:18:07;10.20;99.90
70368;DHT22;57789;53.868;10.728;2022-10-26T00:20:33;10.10;99.90
70368;DHT22;57789;53.868;10.728;2022-10-26T00:22:59;10.00;99.90
70368;DHT22;57789;53.868;10.728;2022-10-26T00:25:25;10.00;99.90
70368;DHT22;57789;53.868;10.728;2022-10-26T00:27:50;9.90;99.90
70368;DHT22;57789;53.868;10.728;2022-10-26T00:30:17;9.80;99.90
70368;DHT22;57789;53.868;10.728;2022-10-26T00:32:42;9.90;99.90
70368;DHT22;57789;53.868;10.728;2022-10-26T00:35:08;9.90;99.90
70368;DHT22;57789;53.868;10.728;2022-10-26T00:37:33;9.80;99.90
70368;DHT22;57789;53.868;10.728;2022-10-26T00:39:59;9.70;99.90
70368;DHT22;57789;53.868;10.728;2022-10-26T00:42:25;9.70;99.90
70368;DHT22;57789;53.868;10.728;2022-10-26T00:44:56;9.70;99.90
70368;DHT22;57789;53.868;10.728;2022-10-26T00:47:51;9.70;99.90
70368;DHT22;57789;53.868;10.728;2022-10-26T00:50:25;9.70;99.90
70368;DHT22;57789;53.868;10.728;2022-10-26T00:52:53;9.60;99.90
70368;DHT22;57789;53.868;10.728;2022-10-26T00:55:24;9.70;99.90
70368;DHT22;57789;53.868;10.728;2022-10-26T00:57:52;9.70;99.90
70368;DHT22;57789;53.868;10.728;2022-10-26T01:00:21;9.70;99.90
70368;DHT22;57789;53.868;10.728;2022-10-26T01:02:48;9.60;99.90
70368;DHT22;57789;53.868;10.728;2022-10-26T01:05:16;9.50;99.90
70368;DHT22;57789;53.868;10.728;2022-10-26T01:07:43;9.40;99.90
70368;DHT22;57789;53.868;10.728;2022-10-26T01:10:09;9.40;99.90
70368;DHT22;57789;53.868;10.728;2022-10-26T01:12:35;9.40;99.90
70368;DHT22;57789;53.868;10.728;2022-10-26T01:15:02;9.40;99.90
70368;DHT22;57789;53.868;10.728;2022-10-26T01:20:18;9.20;99.90
70368;DHT22;57789;53.868;10.728;2022-10-26T01:31:59;9.10;99.90
70368;DHT22;57789;53.868;10.728;2022-10-26T01:34:35;9.10;99.90
70368;DHT22;57789;53.868;10.728;2022-10-26T01:37:10;9.10;99.90
70368;DHT22;57789;53.868;10.728;2022-10-26T01:39:45;9.10;99.90
70368;DHT22;57789;53.868;10.728;2022-10-26T01:42:27;9.00;99.90
70368;DHT22;57789;53.868;10.728;2022-10-26T01:45:06;9.00;99.90
70368;DHT22;57789;53.868;10.728;2022-10-26T01:47:34;9.00;99.90
70368;DHT22;57789;53.868;10.728;2022-10-26T01:50:03;8.90;99.90
70368;DHT22;57789;53.868;10.728;2022-10-26T01:52:28;8.70;99.90
70368;DHT22;57789;53.868;10.728;2022-10-26T01:55:01;8.80;99.90
70368;DHT22;57789;53.868;10.728;2022-10-26T01:57:31;8.80;99.90
70368;DHT22;57789;53.868;10.728;2022-10-26T02:02:36;8.90;99.90
70368;DHT22;57789;53.868;10.728;2022-10-26T02:05:29;8.90;99.90
70368;DHT22;57789;53.868;10.728;2022-10-26T02:08:20;8.90;99.90
70368;DHT22;57789;53.868;10.728;2022-10-26T02:11:04;8.90;99.90
70368;DHT22;57789;53.868;10.728;2022-10-26T02:16:22;8.60;99.90
70368;DHT22;57789;53.868;10.728;2022-10-26T02:19:02;8.50;99.90
70368;DHT22;57789;53.868;10.728;2022-10-26T02:21:37;8.50;99.90
70368;DHT22;57789;53.868;10.728;2022-10-26T02:24:05;8.70;99.90
70368;DHT22;57789;53.868;10.728;2022-10-26T02:26:32;8.60;99.90
70368;DHT22;57789;53.868;10.728;2022-10-26T02:29:03;8.70;99.90
70368;DHT22;57789;53.868;10.728;2022-10-26T02:31:30;8.60;99.90
70368;DHT22;57789;53.868;10.728;2022-10-26T02:33:58;8.60;99.90
70368;DHT22;57789;53.868;10.728;2022-10-26T02:36:29;8.50;99.90
70368;DHT22;57789;53.868;10.728;2022-10-26T02:38:56;8.60;99.90
70368;DHT22;57789;53.868;10.728;2022-10-26T02:41:24;8.60;99.90
70368;DHT22;57789;53.868;10.728;2022-10-26T02:44:01;8.70;99.90
70368;DHT22;57789;53.868;10.728;2022-10-26T02:46:28;8.70;99.90
70368;DHT22;57789;53.868;10.728;2022-10-26T02:48:55;8.80;99.90
70368;DHT22;57789;53.868;10.728;2022-10-26T02:56:50;8.70;99.90
70368;DHT22;57789;53.868;10.728;2022-10-26T02:59:21;8.70;99.90
70368;DHT22;57789;53.868;10.728;2022-10-26T03:01:50;8.70;99.90
70368;DHT22;57789;53.868;10.728;2022-10-26T03:04:16;8.70;99.90
70368;DHT22;57789;53.868;10.728;2022-10-26T03:06:50;8.70;99.90
70368;DHT22;57789;53.868;10.728;2022-10-26T03:09:15;8.80;99.90
70368;DHT22;57789;53.868;10.728;2022-10-26T03:11:41;8.80;99.90
70368;DHT22;57789;53.868;10.728;2022-10-26T03:14:07;8.70;99.90
70368;DHT22;57789;53.868;10.728;2022-10-26T03:16:32;8.60;99.90
70368;DHT22;57789;53.868;10.728;2022-10-26T03:18:58;8.40;99.90
70368;DHT22;57789;53.868;10.728;2022-10-26T03:21:23;8.30;99.90
70368;DHT22;57789;53.868;10.728;2022-10-26T03:23:52;8.20;99.90
70368;DHT22;57789;53.868;10.728;2022-10-26T03:26:18;8.30;99.90
70368;DHT22;57789;53.868;10.728;2022-10-26T03:28:43;8.40;99.90
70368;DHT22;57789;53.868;10.728;2022-10-26T03:31:09;8.50;99.90
70368;DHT22;57789;53.868;10.728;2022-10-26T03:33:34;8.50;99.90
70368;DHT22;57789;53.868;10.728;2022-10-26T03:36:00;8.50;99.90
70368;DHT22;57789;53.868;10.728;2022-10-26T03:38:25;8.30;99.90
70368;DHT22;57789;53.868;10.728;2022-10-26T03:40:51;8.30;99.90
70368;DHT22;57789;53.868;10.728;2022-10-26T03:43:17;8.30;99.90
70368;DHT22;57789;53.868;10.728;2022-10-26T03:45:42;8.30;99.90
70368;DHT22;57789;53.868;10.728;2022-10-26T03:48:08;8.30;99.90
70368;DHT22;57789;53.868;10.728;2022-10-26T03:50:34;8.40;99.90
70368;DHT22;57789;53.868;10.728;2022-10-26T03:53:05;8.30;99.90
70368;DHT22;57789;53.868;10.728;2022-10-26T03:55:31;8.20;99.90
70368;DHT22;57789;53.868;10.728;2022-10-26T03:57:57;8.20;99.90
70368;DHT22;57789;53.868;10.728;2022-10-26T04:00:22;8.20;99.90
70368;DHT22;57789;53.868;10.728;2022-10-26T04:02:59;8.20;99.90
70368;DHT22;57789;53.868;10.728;2022-10-26T04:05:26;8.20;99.90
70368;DHT22;57789;53.868;10.728;2022-10-26T04:07:57;8.20;99.90
70368;DHT22;57789;53.868;10.728;2022-10-26T04:10:25;8.40;99.90
70368;DHT22;57789;53.868;10.728;2022-10-26T04:12:51;8.40;99.90
70368;DHT22;57789;53.868;10.728;2022-10-26T04:15:17;8.50;99.90
70368;DHT22;57789;53.868;10.728;2022-10-26T04:17:43;8.60;99.90
70368;DHT22;57789;53.868;10.728;2022-10-26T04:20:09;8.60;99.90
70368;DHT22;57789;53.868;10.728;2022-10-26T04:22:35;8.60;99.90
70368;DHT22;57789;53.868;10.728;2022-10-26T04:25:04;8.60;99.90
70368;DHT22;57789;53.868;10.728;2022-10-26T04:27:31;8.60;99.90
70368;DHT22;57789;53.868;10.728;2022-10-26T04:29:56;8.60;99.90
70368;DHT22;57789;53.868;10.728;2022-10-26T04:32:22;8.60;99.90
70368;DHT22;57789;53.868;10.728;2022-10-26T04:34:47;8.60;99.90
70368;DHT22;57789;53.868;10.728;2022-10-26T04:37:13;8.50;99.90
70368;DHT22;57789;53.868;10.728;2022-10-26T04:39:39;8.50;99.90
70368;DHT22;57789;53.868;10.728;2022-10-26T04:42:04;8.50;99.90
70368;DHT22;57789;53.868;10.728;2022-10-26T04:44:30;8.50;99.90
70368;DHT22;57789;53.868;10.728;2022-10-26T04:46:56;8.50;99.90
70368;DHT22;57789;53.868;10.728;2022-10-26T04:49:21;8.60;99.90
70368;DHT22;57789;53.868;10.728;2022-10-26T04:51:47;8.50;99.90
70368;DHT22;57789;53.868;10.728;2022-10-26T04:54:13;8.60;99.90
70368;DHT22;57789;53.868;10.728;2022-10-26T04:56:39;8.50;99.90
70368;DHT22;57789;53.868;10.728;2022-10-26T04:59:04;8.30;99.90
70368;DHT22;57789;53.868;10.728;2022-10-26T05:01:31;8.10;99.90
70368;DHT22;57789;53.868;10.728;2022-10-26T05:03:56;8.10;99.90
70368;DHT22;57789;53.868;10.728;2022-10-26T05:06:22;8.20;99.90
70368;DHT22;57789;53.868;10.728;2022-10-26T05:08:48;8.20;99.90
70368;DHT22;57789;53.868;10.728;2022-10-26T05:11:14;8.20;99.90
70368;DHT22;57789;53.868;10.728;2022-10-26T05:13:40;8.10;99.90
70368;DHT22;57789;53.868;10.728;2022-10-26T05:16:06;8.20;99.90
70368;DHT22;57789;53.868;10.728;2022-10-26T05:18:32;8.20;99.90
70368;DHT22;57789;53.868;10.728;2022-10-26T05:20:58;8.20;99.90
70368;DHT22;57789;53.868;10.728;2022-10-26T05:23:23;8.20;99.90
70368;DHT22;57789;53.868;10.728;2022-10-26T05:25:49;8.20;99.90
70368;DHT22;57789;53.868;10.728;2022-10-26T05:28:16;8.20;99.90
70368;DHT22;57789;53.868;10.728;2022-10-26T05:30:44;8.10;99.90
70368;DHT22;57789;53.868;10.728;2022-10-26T05:33:11;8.10;99.90
70368;DHT22;57789;53.868;10.728;2022-10-26T05:35:41;8.10;99.90
70368;DHT22;57789;53.868;10.728;2022-10-26T05:38:08;8.10;99.90
70368;DHT22;57789;53.868;10.728;2022-10-26T05:40:34;8.00;99.90
70368;DHT22;57789;53.868;10.728;2022-10-26T05:43:00;8.00;99.90
70368;DHT22;57789;53.868;10.728;2022-10-26T05:45:31;7.90;99.90
70368;DHT22;57789;53.868;10.728;2022-10-26T05:48:00;7.80;99.90
70368;DHT22;57789;53.868;10.728;2022-10-26T05:50:26;7.70;99.90
70368;DHT22;57789;53.868;10.728;2022-10-26T05:52:51;7.60;99.90
70368;DHT22;57789;53.868;10.728;2022-10-26T05:55:17;7.50;99.90
70368;DHT22;57789;53.868;10.728;2022-10-26T05:57:44;7.50;99.90
70368;DHT22;57789;53.868;10.728;2022-10-26T06:00:16;7.50;99.90
70368;DHT22;57789;53.868;10.728;2022-10-26T06:03:17;7.60;99.90
70368;DHT22;57789;53.868;10.728;2022-10-26T06:06:00;7.90;99.90
70368;DHT22;57789;53.868;10.728;2022-10-26T06:08:27;7.90;99.90
70368;DHT22;57789;53.868;10.728;2022-10-26T06:10:55;7.80;99.90
70368;DHT22;57789;53.868;10.728;2022-10-26T06:13:21;7.80;99.90
70368;DHT22;57789;53.868;10.728;2022-10-26T06:29:48;8.30;99.90
70368;DHT22;57789;53.868;10.728;2022-10-26T06:32:22;8.30;99.90
70368;DHT22;57789;53.868;10.728;2022-10-26T06:34:53;8.30;99.90
70368;DHT22;57789;53.868;10.728;2022-10-26T06:37:21;8.40;99.90
70368;DHT22;57789;53.868;10.728;2022-10-26T06:39:49;8.50;99.90
70368;DHT22;57789;53.868;10.728;2022-10-26T06:42:15;8.50;99.90
70368;DHT22;57789;53.868;10.728;2022-10-26T06:44:41;8.40;99.90
70368;DHT22;57789;53.868;10.728;2022-10-26T06:49:56;8.30;99.90
70368;DHT22;57789;53.868;10.728;2022-10-26T06:52:41;8.30;99.90
70368;DHT22;57789;53.868;10.728;2022-10-26T06:55:15;8.30;99.90
70368;DHT22;57789;53.868;10.728;2022-10-26T06:57:42;8.40;99.90
70368;DHT22;57789;53.868;10.728;2022-10-26T07:00:21;8.40;99.90
70368;DHT22;57789;53.868;10.728;2022-10-26T07:02:48;8.50;99.90
70368;DHT22;57789;53.868;10.728;2022-10-26T07:05:14;8.50;99.90
70368;DHT22;57789;53.868;10.728;2022-10-26T07:07:45;8.60;99.90
70368;DHT22;57789;53.868;10.728;2022-10-26T07:10:12;8.60;99.90
70368;DHT22;57789;53.868;10.728;2022-10-26T07:12:38;8.60;99.90
70368;DHT22;57789;53.868;10.728;2022-10-26T07:15:04;8.60;99.90
70368;DHT22;57789;53.868;10.728;2022-10-26T07:17:30;8.60;99.90
70368;DHT22;57789;53.868;10.728;2022-10-26T07:19:56;8.60;99.90
70368;DHT22;57789;53.868;10.728;2022-10-26T07:22:22;8.70;99.90
70368;DHT22;57789;53.868;10.728;2022-10-26T07:24:49;8.80;99.90
70368;DHT22;57789;53.868;10.728;2022-10-26T07:27:16;8.90;99.90
70368;DHT22;57789;53.868;10.728;2022-10-26T07:29:44;9.00;99.90
70368;DHT22;57789;53.868;10.728;2022-10-26T07:32:09;9.10;99.90
70368;DHT22;57789;53.868;10.728;2022-10-26T07:34:35;9.20;99.90
70368;DHT22;57789;53.868;10.728;2022-10-26T07:37:01;9.20;99.90
70368;DHT22;57789;53.868;10.728;2022-10-26T07:39:29;9.20;99.90
70368;DHT22;57789;53.868;10.728;2022-10-26T07:41:58;9.20;99.90
70368;DHT22;57789;53.868;10.728;2022-10-26T07:44:24;9.30;99.90
70368;DHT22;57789;53.868;10.728;2022-10-26T07:46:50;9.40;99.90
70368;DHT22;57789;53.868;10.728;2022-10-26T07:49:16;9.40;99.90
70368;DHT22;57789;53.868;10.728;2022-10-26T07:51:43;9.40;99.90
70368;DHT22;57789;53.868;10.728;2022-10-26T07:54:09;9.40;99.90
70368;DHT22;57789;53.868;10.728;2022-10-26T07:56:35;9.50;99.90
70368;DHT22;57789;53.868;10.728;2022-10-26T07:59:00;9.60;99.90
70368;DHT22;57789;53.868;10.728;2022-10-26T08:01:26;9.60;99.90
70368;DHT22;57789;53.868;10.728;2022-10-26T08:03:52;9.60;99.90
70368;DHT22;57789;53.868;10.728;2022-10-26T08:06:18;9.70;99.90
70368;DHT22;57789;53.868;10.728;2022-10-26T08:08:44;9.70;99.90
70368;DHT22;57789;53.868;10.728;2022-10-26T08:11:11;9.80;99.90
70368;DHT22;57789;53.868;10.728;2022-10-26T08:13:37;9.80;99.90
70368;DHT22;57789;53.868;10.728;2022-10-26T08:16:04;9.90;99.90
70368;DHT22;57789;53.868;10.728;2022-10-26T08:18:32;10.00;99.90
70368;DHT22;57789;53.868;10.728;2022-10-26T08:21:03;10.00;99.90
70368;DHT22;57789;53.868;10.728;2022-10-26T08:23:30;10.00;99.90
70368;DHT22;57789;53.868;10.728;2022-10-26T08:25:59;10.10;99.90
70368;DHT22;57789;53.868;10.728;2022-10-26T08:28:26;10.10;99.90
70368;DHT22;57789;53.868;10.728;2022-10-26T08:30:52;10.10;99.90
70368;DHT22;57789;53.868;10.728;2022-10-26T08:33:18;10.20;99.90
70368;DHT22;57789;53.868;10.728;2022-10-26T08:35:44;10.20;99.90
70368;DHT22;57789;53.868;10.728;2022-10-26T08:38:09;10.30;99.90
70368;DHT22;57789;53.868;10.728;2022-10-26T08:40:40;10.40;99.90
70368;DHT22;57789;53.868;10.728;2022-10-26T08:43:26;10.50;99.90
70368;DHT22;57789;53.868;10.728;2022-10-26T08:45:58;10.50;99.90
70368;DHT22;57789;53.868;10.728;2022-10-26T08:48:31;10.70;99.90
70368;DHT22;57789;53.868;10.728;2022-10-26T08:51:02;10.70;99.90
70368;DHT22;57789;53.868;10.728;2022-10-26T08:53:51;10.80;99.90
70368;DHT22;57789;53.868;10.728;2022-10-26T08:56:22;11.00;99.90
70368;DHT22;57789;53.868;10.728;2022-10-26T08:59:00;11.10;99.90
70368;DHT22;57789;53.868;10.728;2022-10-26T09:01:30;11.20;99.90
70368;DHT22;57789;53.868;10.728;2022-10-26T09:04:02;11.40;99.90
70368;DHT22;57789;53.868;10.728;2022-10-26T09:09:22;11.70;99.90
70368;DHT22;57789;53.868;10.728;2022-10-26T09:12:06;12.00;99.90
70368;DHT22;57789;53.868;10.728;2022-10-26T09:25:52;13.70;99.90
70368;DHT22;57789;53.868;10.728;2022-10-26T09:28:21;13.80;99.90
70368;DHT22;57789;53.868;10.728;2022-10-26T09:30:47;14.00;99.90
70368;DHT22;57789;53.868;10.728;2022-10-26T09:33:18;14.00;99.90
70368;DHT22;57789;53.868;10.728;2022-10-26T09:36:04;14.00;99.90
70368;DHT22;57789;53.868;10.728;2022-10-26T09:38:35;14.00;99.90
70368;DHT22;57789;53.868;10.728;2022-10-26T09:46:17;14.20;99.90
70368;DHT22;57789;53.868;10.728;2022-10-26T09:48:50;14.40;99.90
70368;DHT22;57789;53.868;10.728;2022-10-26T09:51:18;14.40;99.90
70368;DHT22;57789;53.868;10.728;2022-10-26T09:53:44;14.40;99.90
70368;DHT22;57789;53.868;10.728;2022-10-26T09:56:11;14.40;99.90
70368;DHT22;57789;53.868;10.728;2022-10-26T09:59:01;14.40;99.90
70368;DHT22;57789;53.868;10.728;2022-10-26T10:01:30;14.50;99.90
70368;DHT22;57789;53.868;10.728;2022-10-26T10:06:52;14.60;99.90
70368;DHT22;57789;53.868;10.728;2022-10-26T10:09:27;14.70;99.90
70368;DHT22;57789;53.868;10.728;2022-10-26T10:11:59;14.70;99.90
70368;DHT22;57789;53.868;10.728;2022-10-26T10:14:32;14.80;99.90
70368;DHT22;57789;53.868;10.728;2022-10-26T10:17:03;15.00;99.90
70368;DHT22;57789;53.868;10.728;2022-10-26T10:19:31;15.30;99.90
70368;DHT22;57789;53.868;10.728;2022-10-26T10:22:23;15.60;99.90
70368;DHT22;57789;53.868;10.728;2022-10-26T10:24:57;15.70;99.90
70368;DHT22;57789;53.868;10.728;2022-10-26T10:27:24;15.70;99.90
70368;DHT22;57789;53.868;10.728;2022-10-26T10:29:55;15.60;99.90
70368;DHT22;57789;53.868;10.728;2022-10-26T10:34:47;15.80;99.90
70368;DHT22;57789;53.868;10.728;2022-10-26T10:37:40;15.70;99.90
70368;DHT22;57789;53.868;10.728;2022-10-26T10:40:18;15.80;99.90
70368;DHT22;57789;53.868;10.728;2022-10-26T10:42:45;15.80;99.90
70368;DHT22;57789;53.868;10.728;2022-10-26T10:45:25;15.90;99.90
70368;DHT22;57789;53.868;10.728;2022-10-26T10:48:16;15.90;99.90
70368;DHT22;57789;53.868;10.728;2022-10-26T10:50:59;15.90;99.90
70368;DHT22;57789;53.868;10.728;2022-10-26T11:01:39;16.10;99.90
70368;DHT22;57789;53.868;10.728;2022-10-26T11:04:52;16.10;99.90
70368;DHT22;57789;53.868;10.728;2022-10-26T11:07:25;16.20;99.90
70368;DHT22;57789;53.868;10.728;2022-10-26T11:09:53;16.40;99.90
70368;DHT22;57789;53.868;10.728;2022-10-26T11:12:32;16.60;99.90
70368;DHT22;57789;53.868;10.728;2022-10-26T11:15:02;17.00;99.90
70368;DHT22;57789;53.868;10.728;2022-10-26T11:17:37;17.40;99.90
70368;DHT22;57789;53.868;10.728;2022-10-26T11:20:12;17.60;99.90
70368;DHT22;57789;53.868;10.728;2022-10-26T11:25:27;17.80;99.90
70368;DHT22;57789;53.868;10.728;2022-10-26T11:31:00;17.90;99.90
70368;DHT22;57789;53.868;10.728;2022-10-26T11:34:08;17.90;99.90
70368;DHT22;57789;53.868;10.728;2022-10-26T11:36:38;17.80;99.90
70368;DHT22;57789;53.868;10.728;2022-10-26T11:39:24;17.70;99.90
70368;DHT22;57789;53.868;10.728;2022-10-26T11:45:38;17.30;99.90
70368;DHT22;57789;53.868;10.728;2022-10-26T11:50:53;17.20;99.90
70368;DHT22;57789;53.868;10.728;2022-10-26T11:53:29;17.20;99.90
70368;DHT22;57789;53.868;10.728;2022-10-26T11:56:20;17.20;99.90
70368;DHT22;57789;53.868;10.728;2022-10-26T11:58:48;17.20;99.90
70368;DHT22;57789;53.868;10.728;2022-10-26T12:01:15;17.10;99.90
70368;DHT22;57789;53.868;10.728;2022-10-26T12:03:48;17.10;99.90
70368;DHT22;57789;53.868;10.728;2022-10-26T12:06:19;17.00;99.90
70368;DHT22;57789;53.868;10.728;2022-10-26T12:08:51;17.00;99.90
70368;DHT22;57789;53.868;10.728;2022-10-26T12:11:50;17.00;99.90
70368;DHT22;57789;53.868;10.728;2022-10-26T12:14:31;16.90;99.90
70368;DHT22;57789;53.868;10.728;2022-10-26T12:19:54;16.90;99.90
70368;DHT22;57789;53.868;10.728;2022-10-26T12:22:32;16.90;99.90
70368;DHT22;57789;53.868;10.728;2022-10-26T12:43:35;17.40;99.90
70368;DHT22;57789;53.868;10.728;2022-10-26T12:48:47;17.90;99.90
70368;DHT22;57789;53.868;10.728;2022-10-26T12:59:53;18.20;99.90
70368;DHT22;57789;53.868;10.728;2022-10-26T13:08:13;18.00;99.90
70368;DHT22;57789;53.868;10.728;2022-10-26T13:10:58;18.00;99.90
70368;DHT22;57789;53.868;10.728;2022-10-26T13:13:27;17.80;99.90
70368;DHT22;57789;53.868;10.728;2022-10-26T13:15:58;17.70;99.90
70368;DHT22;57789;53.868;10.728;2022-10-26T13:18:25;17.60;99.90
70368;DHT22;57789;53.868;10.728;2022-10-26T13:23:28;17.50;99.90
70368;DHT22;57789;53.868;10.728;2022-10-26T13:31:03;17.30;99.90
70368;DHT22;57789;53.868;10.728;2022-10-26T13:33:37;17.20;99.90
70368;DHT22;57789;53.868;10.728;2022-10-26T13:36:35;17.20;99.90
70368;DHT22;57789;53.868;10.728;2022-10-26T13:39:09;17.20;99.90
70368;DHT22;57789;53.868;10.728;2022-10-26T13:41:40;17.20;99.90
70368;DHT22;57789;53.868;10.728;2022-10-26T13:44:14;17.30;99.90
70368;DHT22;57789;53.868;10.728;2022-10-26T13:46:41;17.30;99.90
70368;DHT22;57789;53.868;10.728;2022-10-26T13:49:32;17.40;99.90
70368;DHT22;57789;53.868;10.728;2022-10-26T13:52:02;17.40;99.90
70368;DHT22;57789;53.868;10.728;2022-10-26T13:54:38;17.40;99.90
70368;DHT22;57789;53.868;10.728;2022-10-26T13:59:38;17.50;99.90
70368;DHT22;57789;53.868;10.728;2022-10-26T14:02:16;17.60;99.90
70368;DHT22;57789;53.868;10.728;2022-10-26T14:04:53;17.60;99.90
70368;DHT22;57789;53.868;10.728;2022-10-26T14:07:23;17.80;99.90
70368;DHT22;57789;53.868;10.728;2022-10-26T14:09:57;17.80;99.90
70368;DHT22;57789;53.868;10.728;2022-10-26T14:12:23;17.90;99.90
70368;DHT22;57789;53.868;10.728;2022-10-26T14:14:50;17.90;99.90
70368;DHT22;57789;53.868;10.728;2022-10-26T14:17:23;17.90;99.90
70368;DHT22;57789;53.868;10.728;2022-10-26T14:19:50;18.00;99.90
70368;DHT22;57789;53.868;10.728;2022-10-26T14:22:21;18.00;99.90
70368;DHT22;57789;53.868;10.728;2022-10-26T14:24:53;18.00;99.90
70368;DHT22;57789;53.868;10.728;2022-10-26T14:27:22;18.00;99.90
70368;DHT22;57789;53.868;10.728;2022-10-26T14:29:52;17.90;99.90
70368;DHT22;57789;53.868;10.728;2022-10-26T14:32:20;17.90;99.90
70368;DHT22;57789;53.868;10.728;2022-10-26T14:34:46;17.80;99.90
70368;DHT22;57789;53.868;10.728;2022-10-26T14:40:16;17.60;99.90
70368;DHT22;57789;53.868;10.728;2022-10-26T14:42:44;17.50;99.90
70368;DHT22;57789;53.868;10.728;2022-10-26T14:45:27;17.40;99.90
70368;DHT22;57789;53.868;10.728;2022-10-26T14:50:59;17.40;99.90
70368;DHT22;57789;53.868;10.728;2022-10-26T14:53:37;17.40;99.90
70368;DHT22;57789;53.868;10.728;2022-10-26T14:56:05;17.40;99.90
70368;DHT22;57789;53.868;10.728;2022-10-26T14:58:41;17.30;99.90
70368;DHT22;57789;53.868;10.728;2022-10-26T15:01:24;17.30;99.90
70368;DHT22;57789;53.868;10.728;2022-10-26T15:03:57;17.20;99.90
70368;DHT22;57789;53.868;10.728;2022-10-26T15:06:29;17.20;99.90
70368;DHT22;57789;53.868;10.728;2022-10-26T15:08:59;17.10;99.90
70368;DHT22;57789;53.868;10.728;2022-10-26T15:11:26;17.10;99.90
70368;DHT22;57789;53.868;10.728;2022-10-26T15:14:10;17.00;99.90
70368;DHT22;57789;53.868;10.728;2022-10-26T15:16:37;16.90;99.90
70368;DHT22;57789;53.868;10.728;2022-10-26T15:19:10;16.80;99.90
70368;DHT22;57789;53.868;10.728;2022-10-26T15:21:37;16.70;99.90
70368;DHT22;57789;53.868;10.728;2022-10-26T15:24:29;16.70;99.90
70368;DHT22;57789;53.868;10.728;2022-10-26T15:26:56;16.60;99.90
70368;DHT22;57789;53.868;10.728;2022-10-26T15:29:41;16.40;99.90
70368;DHT22;57789;53.868;10.728;2022-10-26T15:32:30;16.30;99.90
70368;DHT22;57789;53.868;10.728;2022-10-26T15:35:14;16.10;99.90
70368;DHT22;57789;53.868;10.728;2022-10-26T15:37:40;16.00;99.90
70368;DHT22;57789;53.868;10.728;2022-10-26T15:40:06;15.90;99.90
70368;DHT22;57789;53.868;10.728;2022-10-26T15:42:35;15.80;99.90
70368;DHT22;57789;53.868;10.728;2022-10-26T15:45:03;15.70;99.90
70368;DHT22;57789;53.868;10.728;2022-10-26T15:47:32;15.60;99.90
70368;DHT22;57789;53.868;10.728;2022-10-26T15:49:58;15.50;99.90
70368;DHT22;57789;53.868;10.728;2022-10-26T15:52:24;15.40;99.90
70368;DHT22;57789;53.868;10.728;2022-10-26T15:54:49;15.30;99.90
70368;DHT22;57789;53.868;10.728;2022-10-26T15:57:15;15.30;99.90
70368;DHT22;57789;53.868;10.728;2022-10-26T15:59:44;15.20;99.90
70368;DHT22;57789;53.868;10.728;2022-10-26T16:02:13;15.20;99.90
70368;DHT22;57789;53.868;10.728;2022-10-26T16:04:39;15.20;99.90
70368;DHT22;57789;53.868;10.728;2022-10-26T16:07:07;15.20;99.90
70368;DHT22;57789;53.868;10.728;2022-10-26T16:09:38;15.20;99.90
70368;DHT22;57789;53.868;10.728;2022-10-26T16:12:07;15.20;99.90
70368;DHT22;57789;53.868;10.728;2022-10-26T16:14:33;15.10;99.90
70368;DHT22;57789;53.868;10.728;2022-10-26T16:16:59;15.20;99.90
70368;DHT22;57789;53.868;10.728;2022-10-26T16:19:24;15.10;99.90
70368;DHT22;57789;53.868;10.728;2022-10-26T16:21:50;15.10;99.90
70368;DHT22;57789;53.868;10.728;2022-10-26T16:24:16;15.00;99.90
70368;DHT22;57789;53.868;10.728;2022-10-26T16:26:42;14.90;99.90
70368;DHT22;57789;53.868;10.728;2022-10-26T16:29:07;14.80;99.90
70368;DHT22;57789;53.868;10.728;2022-10-26T16:31:33;14.70;99.90
70368;DHT22;57789;53.868;10.728;2022-10-26T16:33:59;14.60;99.90
70368;DHT22;57789;53.868;10.728;2022-10-26T16:36:24;14.50;99.90
70368;DHT22;57789;53.868;10.728;2022-10-26T16:38:50;14.40;99.90
70368;DHT22;57789;53.868;10.728;2022-10-26T16:41:15;14.30;99.90
70368;DHT22;57789;53.868;10.728;2022-10-26T16:43:45;14.30;99.90
70368;DHT22;57789;53.868;10.728;2022-10-26T16:46:19;14.20;99.90
70368;DHT22;57789;53.868;10.728;2022-10-26T16:48:46;14.10;99.90
70368;DHT22;57789;53.868;10.728;2022-10-26T16:51:21;14.00;99.90
70368;DHT22;57789;53.868;10.728;2022-10-26T16:53:48;13.90;99.90
70368;DHT22;57789;53.868;10.728;2022-10-26T16:56:17;13.90;99.90
70368;DHT22;57789;53.868;10.728;2022-10-26T16:58:47;13.80;99.90
70368;DHT22;57789;53.868;10.728;2022-10-26T17:01:13;13.80;99.90
70368;DHT22;57789;53.868;10.728;2022-10-26T17:03:47;13.70;99.90
70368;DHT22;57789;53.868;10.728;2022-10-26T17:06:13;13.70;99.90
70368;DHT22;57789;53.868;10.728;2022-10-26T17:08:39;13.60;99.90
70368;DHT22;57789;53.868;10.728;2022-10-26T17:11:10;13.60;99.90
70368;DHT22;57789;53.868;10.728;2022-10-26T17:13:36;13.60;99.90
70368;DHT22;57789;53.868;10.728;2022-10-26T17:16:11;13.50;99.90
70368;DHT22;57789;53.868;10.728;2022-10-26T17:18:41;13.50;99.90
70368;DHT22;57789;53.868;10.728;2022-10-26T17:21:12;13.50;99.90
70368;DHT22;57789;53.868;10.728;2022-10-26T17:23:38;13.50;99.90
70368;DHT22;57789;53.868;10.728;2022-10-26T17:26:06;13.50;99.90
70368;DHT22;57789;53.868;10.728;2022-10-26T17:28:32;13.50;99.90
70368;DHT22;57789;53.868;10.728;2022-10-26T17:31:16;13.50;99.90
70368;DHT22;57789;53.868;10.728;2022-10-26T17:33:43;13.60;99.90
70368;DHT22;57789;53.868;10.728;2022-10-26T17:36:11;13.50;99.90
70368;DHT22;57789;53.868;10.728;2022-10-26T17:38:47;13.60;99.90
70368;DHT22;57789;53.868;10.728;2022-10-26T17:41:14;13.50;99.90
70368;DHT22;57789;53.868;10.728;2022-10-26T17:43:41;13.50;99.90
70368;DHT22;57789;53.868;10.728;2022-10-26T17:46:11;13.60;99.90
70368;DHT22;57789;53.868;10.728;2022-10-26T17:48:37;13.60;99.90
70368;DHT22;57789;53.868;10.728;2022-10-26T17:51:06;13.60;99.90
70368;DHT22;57789;53.868;10.728;2022-10-26T17:53:32;13.60;99.90
70368;DHT22;57789;53.868;10.728;2022-10-26T17:56:03;13.60;99.90
70368;DHT22;57789;53.868;10.728;2022-10-26T17:58:29;13.70;99.90
70368;DHT22;57789;53.868;10.728;2022-10-26T18:00:58;13.70;99.90